createdAt,value
2022-08-28T00:01:09.172Z,2.37
2022-08-28T00:03:37.574Z,2.30
2022-08-28T00:06:07.139Z,2.40
2022-08-28T00:08:35.594Z,2.50
2022-08-28T00:11:05.657Z,2.70
2022-08-28T00:13:34.375Z,2.70
2022-08-28T00:16:02.959Z,3.03
2022-08-28T00:18:32.132Z,2.33
2022-08-28T00:21:00.890Z,2.63
2022-08-28T00:23:36.972Z,2.80
2022-08-28T00:26:34.044Z,2.37
2022-08-28T00:29:01.466Z,2.83
2022-08-28T00:31:31.054Z,2.70
2022-08-28T00:34:03.031Z,2.77
2022-08-28T00:36:31.339Z,2.50
2022-08-28T00:39:00.391Z,2.50
2022-08-28T00:41:32.044Z,2.50
2022-08-28T00:44:11.508Z,2.90
2022-08-28T00:46:40.841Z,2.80
2022-08-28T00:49:10.018Z,2.70
2022-08-28T00:51:56.814Z,2.90
2022-08-28T00:54:26.189Z,2.90
2022-08-28T00:56:57.249Z,3.17
2022-08-28T00:59:27.189Z,3.20
2022-08-28T01:01:57.662Z,2.90
2022-08-28T01:04:29.529Z,2.80
2022-08-28T01:06:59.312Z,2.80
2022-08-28T01:09:31.019Z,3.03
2022-08-28T01:12:04.159Z,2.87
2022-08-28T01:14:34.772Z,2.77
2022-08-28T01:17:03.538Z,2.90
2022-08-28T01:19:35.480Z,2.77
2022-08-28T01:22:18.883Z,3.40
2022-08-28T01:24:51.123Z,3.37
2022-08-28T01:27:20.238Z,2.87
2022-08-28T01:29:52.126Z,2.70
2022-08-28T01:32:32.656Z,2.70
2022-08-28T01:35:01.972Z,3.37
2022-08-28T01:37:31.649Z,3.03
2022-08-28T01:40:02.435Z,3.10
2022-08-28T01:42:30.848Z,2.97
2022-08-28T01:44:59.209Z,3.03
2022-08-28T01:47:27.701Z,2.90
2022-08-28T01:49:56.739Z,3.23
2022-08-28T01:52:26.506Z,2.93
2022-08-28T01:54:55.266Z,3.10
2022-08-28T01:57:27.743Z,3.03
2022-08-28T01:59:56.370Z,3.30
2022-08-28T02:02:24.913Z,2.93
2022-08-28T02:04:53.893Z,3.60
2022-08-28T02:07:22.530Z,3.40
2022-08-28T02:09:50.782Z,3.30
2022-08-28T02:12:19.966Z,3.33
2022-08-28T02:14:50.104Z,3.63
2022-08-28T02:17:18.355Z,3.60
2022-08-28T02:19:46.556Z,3.40
2022-08-28T02:22:14.939Z,3.47
2022-08-28T02:24:43.098Z,3.13
2022-08-28T02:27:11.396Z,3.53
2022-08-28T02:29:39.643Z,3.77
2022-08-28T02:32:09.299Z,3.77
2022-08-28T02:34:38.142Z,3.80
2022-08-28T02:37:09.084Z,3.97
2022-08-28T02:39:37.285Z,3.70
2022-08-28T02:42:05.804Z,4.10
2022-08-28T02:44:35.165Z,3.53
2022-08-28T02:47:03.585Z,4.10
2022-08-28T02:49:36.465Z,3.50
2022-08-28T02:52:06.995Z,3.50
2022-08-28T02:54:35.794Z,3.40
2022-08-28T02:57:04.185Z,3.67
2022-08-28T02:59:32.647Z,3.60
2022-08-28T03:02:04.036Z,4.07
2022-08-28T03:04:33.938Z,3.77
2022-08-28T03:07:02.835Z,3.77
2022-08-28T03:09:31.394Z,3.57
2022-08-28T03:11:59.639Z,4.10
2022-08-28T03:14:28.807Z,3.73
2022-08-28T03:16:57.009Z,4.00
2022-08-28T03:19:25.666Z,3.87
2022-08-28T03:21:57.551Z,4.30
2022-08-28T03:24:26.049Z,4.03
2022-08-28T03:26:54.826Z,4.37
2022-08-28T03:29:23.475Z,4.10
2022-08-28T03:31:51.759Z,4.37
2022-08-28T03:34:20.161Z,3.90
2022-08-28T03:36:48.681Z,3.87
2022-08-28T03:39:19.466Z,4.53
2022-08-28T03:41:48.184Z,4.23
2022-08-28T03:44:16.866Z,4.30
2022-08-28T03:46:45.165Z,4.17
2022-08-28T03:49:13.520Z,3.97
2022-08-28T03:51:42.648Z,3.80
2022-08-28T03:54:11.046Z,4.50
2022-08-28T03:56:43.631Z,3.83
2022-08-28T03:59:11.890Z,4.50
2022-08-28T04:01:40.631Z,4.13
2022-08-28T04:04:09.553Z,4.00
2022-08-28T04:06:37.866Z,4.00
2022-08-28T04:09:06.967Z,3.90
2022-08-28T04:11:41.948Z,3.67
2022-08-28T04:14:50.132Z,3.40
2022-08-28T04:17:18.830Z,3.90
2022-08-28T04:20:11.014Z,3.50
2022-08-28T04:22:40.275Z,3.77
2022-08-28T04:25:09.766Z,3.43
2022-08-28T04:27:40.374Z,3.70
2022-08-28T04:30:10.061Z,3.40
2022-08-28T04:32:39.600Z,4.13
2022-08-28T04:35:12.137Z,3.50
2022-08-28T04:37:40.988Z,4.03
2022-08-28T04:40:11.682Z,3.47
2022-08-28T04:42:42.546Z,3.57
2022-08-28T04:45:11.372Z,3.50
2022-08-28T04:47:40.293Z,3.63
2022-08-28T04:50:09.942Z,3.37
2022-08-28T04:52:38.614Z,3.93
2022-08-28T04:55:07.751Z,3.33
2022-08-28T04:57:36.606Z,3.43
2022-08-28T05:00:09.123Z,3.80
2022-08-28T05:02:37.563Z,3.57
2022-08-28T05:05:06.549Z,3.63
2022-08-28T05:07:35.560Z,3.30
2022-08-28T05:10:04.177Z,2.97
2022-08-28T05:12:35.899Z,3.23
2022-08-28T05:15:04.725Z,3.33
2022-08-28T05:17:35.094Z,3.40
2022-08-28T05:20:03.690Z,3.87
2022-08-28T05:22:32.393Z,3.80
2022-08-28T05:25:02.005Z,3.80
2022-08-28T05:27:30.467Z,3.30
2022-08-28T05:30:01.932Z,3.13
2022-08-28T05:32:30.922Z,3.40
2022-08-28T05:35:00.598Z,3.30
2022-08-28T05:37:28.792Z,3.10
2022-08-28T05:39:57.740Z,3.53
2022-08-28T05:42:30.592Z,3.30
2022-08-28T05:45:00.189Z,3.03
2022-08-28T05:47:28.402Z,3.40
2022-08-28T05:49:56.685Z,2.87
2022-08-28T05:52:28.862Z,2.87
2022-08-28T05:54:57.247Z,3.20
2022-08-28T05:57:25.535Z,3.10
2022-08-28T05:59:54.541Z,3.00
2022-08-28T06:02:22.955Z,2.73
2022-08-28T06:04:53.595Z,2.97
2022-08-28T06:07:22.233Z,2.70
2022-08-28T06:09:51.900Z,2.60
2022-08-28T06:12:20.383Z,3.00
2022-08-28T06:14:48.868Z,3.13
2022-08-28T06:17:23.462Z,2.60
2022-08-28T06:19:52.354Z,2.87
2022-08-28T06:22:20.715Z,3.10
2022-08-28T06:24:48.954Z,2.73
2022-08-28T06:27:18.555Z,2.70
2022-08-28T06:29:46.792Z,2.87
2022-08-28T06:32:15.137Z,2.90
2022-08-28T06:34:43.500Z,2.70
2022-08-28T06:37:11.688Z,2.77
2022-08-28T06:39:39.931Z,2.80
2022-08-28T06:42:08.339Z,2.87
2022-08-28T06:44:39.289Z,3.13
2022-08-28T06:47:07.554Z,3.20
2022-08-28T06:49:36.339Z,3.63
2022-08-28T06:52:04.871Z,3.07
2022-08-28T06:54:33.095Z,3.30
2022-08-28T06:57:01.394Z,3.40
2022-08-28T06:59:29.788Z,2.77
2022-08-28T07:02:03.955Z,3.40
2022-08-28T07:04:32.199Z,3.50
2022-08-28T07:07:00.519Z,2.80
2022-08-28T07:09:28.854Z,3.00
2022-08-28T07:11:57.069Z,3.13
2022-08-28T07:14:26.884Z,3.20
2022-08-28T07:16:56.089Z,2.60
2022-08-28T07:19:26.653Z,3.10
2022-08-28T07:21:55.443Z,2.73
2022-08-28T07:24:24.504Z,2.73
2022-08-28T07:26:52.902Z,2.87
2022-08-28T07:29:22.421Z,3.00
2022-08-28T07:31:52.879Z,3.27
2022-08-28T07:34:27.107Z,2.57
2022-08-28T07:37:04.401Z,2.53
2022-08-28T07:39:32.637Z,2.40
2022-08-28T07:42:01.115Z,2.70
2022-08-28T07:44:47.081Z,2.80
2022-08-28T07:47:17.787Z,2.83
2022-08-28T07:49:47.623Z,3.10
2022-08-28T07:52:20.199Z,2.87
2022-08-28T07:54:49.116Z,2.77
2022-08-28T07:57:17.831Z,2.50
2022-08-28T07:59:46.566Z,3.20
2022-08-28T08:02:14.985Z,2.53
2022-08-28T08:04:43.460Z,2.40
2022-08-28T08:07:12.994Z,2.50
2022-08-28T08:09:44.242Z,3.00
2022-08-28T08:12:14.393Z,2.60
2022-08-28T08:14:43.997Z,2.77
2022-08-28T08:17:12.297Z,2.77
2022-08-28T08:19:41.180Z,3.00
2022-08-28T08:22:09.429Z,2.40
2022-08-28T08:24:37.698Z,2.83
2022-08-28T08:27:08.001Z,2.60
2022-08-28T08:29:38.619Z,2.23
2022-08-28T08:32:09.058Z,2.30
2022-08-28T08:34:40.236Z,2.70
2022-08-28T08:37:09.346Z,3.10
2022-08-28T08:39:38.354Z,2.40
2022-08-28T08:42:11.957Z,2.53
2022-08-28T08:44:42.259Z,2.40
2022-08-28T08:47:17.372Z,2.70
2022-08-28T08:49:51.446Z,2.70
2022-08-28T08:52:40.006Z,2.77
2022-08-28T08:55:20.787Z,2.70
2022-08-28T08:57:57.324Z,2.53
2022-08-28T09:00:25.909Z,2.70
2022-08-28T09:03:02.600Z,2.43
2022-08-28T09:05:43.616Z,2.40
2022-08-28T09:08:19.720Z,2.80
2022-08-28T09:10:55.129Z,2.53
2022-08-28T09:13:33.034Z,2.50
2022-08-28T09:16:24.191Z,2.60
2022-08-28T09:18:56.443Z,2.57
2022-08-28T09:21:29.319Z,2.27
2022-08-28T09:24:01.718Z,2.40
2022-08-28T09:26:34.303Z,2.30
2022-08-28T09:29:08.206Z,2.37
2022-08-28T09:31:39.363Z,2.53
2022-08-28T09:34:38.115Z,2.53
2022-08-28T09:37:09.836Z,2.50
2022-08-28T09:39:45.575Z,2.67
2022-08-28T09:42:40.059Z,2.10
2022-08-28T09:45:18.577Z,2.47
2022-08-28T09:47:49.859Z,2.50
2022-08-28T09:50:32.352Z,2.40
2022-08-28T09:53:15.754Z,2.40
2022-08-28T09:55:55.003Z,2.70
2022-08-28T09:58:27.386Z,2.60
2022-08-28T10:01:02.034Z,2.10
2022-08-28T10:03:37.579Z,2.50
2022-08-28T10:06:12.370Z,2.37
2022-08-28T10:09:03.415Z,2.30
2022-08-28T10:11:44.481Z,2.30
2022-08-28T10:14:28.764Z,2.30
2022-08-28T10:17:08.286Z,2.40
2022-08-28T10:19:45.298Z,2.25
2022-08-28T10:22:30.413Z,2.20
2022-08-28T10:25:11.679Z,2.42
2022-08-28T10:27:57.929Z,2.33
2022-08-28T10:30:26.871Z,2.38
2022-08-28T10:33:25.709Z,2.30
2022-08-28T10:35:59.152Z,1.88
2022-08-28T10:38:38.649Z,2.05
2022-08-28T10:41:12.279Z,2.00
2022-08-28T10:43:48.210Z,2.22
2022-08-28T10:46:25.250Z,1.92
2022-08-28T10:49:01.578Z,2.30
2022-08-28T10:51:39.473Z,1.90
2022-08-28T10:54:20.594Z,1.90
2022-08-28T10:56:56.405Z,1.83
2022-08-28T10:59:26.293Z,2.28
2022-08-28T11:01:55.022Z,1.92
2022-08-28T11:04:29.329Z,2.05
2022-08-28T11:07:04.024Z,2.08
2022-08-28T11:09:36.038Z,1.85
2022-08-28T11:12:07.514Z,1.70
2022-08-28T11:14:47.775Z,1.88
2022-08-28T11:17:42.256Z,1.77
2022-08-28T11:20:18.368Z,1.92
2022-08-28T11:22:49.527Z,2.35
2022-08-28T11:25:26.591Z,1.88
2022-08-28T11:28:18.472Z,2.15
2022-08-28T11:30:49.250Z,1.90
2022-08-28T11:33:40.091Z,2.28
2022-08-28T11:36:13.286Z,1.85
2022-08-28T11:39:02.701Z,1.90
2022-08-28T11:41:33.255Z,2.10
2022-08-28T11:44:42.416Z,1.90
2022-08-28T11:47:52.327Z,1.70
2022-08-28T11:50:33.219Z,1.92
2022-08-28T11:53:34.862Z,1.90
2022-08-28T11:56:31.485Z,1.88
2022-08-28T11:59:14.108Z,2.10
2022-08-28T12:01:42.553Z,2.00
2022-08-28T12:04:13.412Z,1.70
2022-08-28T12:06:50.329Z,1.80
2022-08-28T12:09:42.457Z,1.90
2022-08-28T12:12:31.008Z,1.88
2022-08-28T12:15:01.249Z,1.90
2022-08-28T12:17:43.767Z,1.70
2022-08-28T12:20:19.426Z,1.73
2022-08-28T12:22:53.051Z,1.85
2022-08-28T12:25:30.610Z,1.90
2022-08-28T12:28:01.115Z,1.90
2022-08-28T12:30:32.646Z,1.93
2022-08-28T12:33:09.439Z,1.80
2022-08-28T12:35:38.031Z,1.83
2022-08-28T12:38:09.301Z,1.77
2022-08-28T12:40:55.110Z,1.67
2022-08-28T12:43:31.100Z,1.73
2022-08-28T12:46:03.138Z,1.50
2022-08-28T12:48:33.913Z,2.03
2022-08-28T12:51:05.521Z,2.23
2022-08-28T12:53:43.688Z,2.00
2022-08-28T12:56:15.932Z,1.70
2022-08-28T12:58:45.022Z,1.83
2022-08-28T13:01:17.134Z,1.90
2022-08-28T13:03:48.076Z,1.87
2022-08-28T13:06:25.623Z,1.83
2022-08-28T13:08:58.992Z,1.60
2022-08-28T13:11:32.052Z,1.60
2022-08-28T13:14:00.374Z,2.00
2022-08-28T13:16:41.075Z,1.33
2022-08-28T13:19:22.349Z,1.87
2022-08-28T13:21:59.120Z,1.80
2022-08-28T13:24:46.781Z,1.80
2022-08-28T13:27:25.762Z,1.50
2022-08-28T13:30:05.586Z,1.70
2022-08-28T13:32:36.835Z,2.03
2022-08-28T13:35:34.095Z,1.93
2022-08-28T13:38:04.864Z,1.73
2022-08-28T13:40:57.371Z,1.60
2022-08-28T13:43:31.011Z,1.70
2022-08-28T13:46:38.608Z,1.60
2022-08-28T13:49:09.402Z,1.40
2022-08-28T13:51:39.552Z,1.87
2022-08-28T13:54:08.174Z,1.33
2022-08-28T13:56:37.246Z,1.53
2022-08-28T13:59:06.847Z,1.70
2022-08-28T14:01:49.440Z,1.70
2022-08-28T14:04:17.778Z,1.47
2022-08-28T14:06:46.024Z,1.67
2022-08-28T14:09:17.789Z,1.70
2022-08-28T14:11:47.559Z,1.70
2022-08-28T14:14:18.264Z,1.80
2022-08-28T14:16:46.600Z,1.60
2022-08-28T14:19:15.000Z,1.80
2022-08-28T14:21:43.676Z,1.40
2022-08-28T14:24:12.295Z,2.00
2022-08-28T14:26:40.988Z,1.50
2022-08-28T14:29:11.885Z,1.70
2022-08-28T14:31:41.980Z,1.30
2022-08-28T14:34:11.965Z,1.63
2022-08-28T14:36:41.547Z,1.73
2022-08-28T14:39:11.640Z,1.60
2022-08-28T14:41:44.458Z,1.60
2022-08-28T14:44:13.129Z,1.60
2022-08-28T14:46:45.994Z,1.40
2022-08-28T14:49:17.367Z,1.43
2022-08-28T14:51:47.271Z,1.40
2022-08-28T14:54:17.417Z,1.60
2022-08-28T14:56:47.152Z,1.80
2022-08-28T14:59:23.292Z,1.37
2022-08-28T15:01:55.276Z,1.83
2022-08-28T15:04:26.172Z,1.80
2022-08-28T15:06:58.261Z,1.50
2022-08-28T15:09:28.013Z,1.30
2022-08-28T15:11:56.375Z,1.37
2022-08-28T15:14:24.600Z,1.30
2022-08-28T15:16:54.492Z,1.47
2022-08-28T15:19:23.433Z,1.53
2022-08-28T15:21:53.403Z,1.53
2022-08-28T15:24:24.778Z,1.53
2022-08-28T15:26:53.217Z,1.37
2022-08-28T15:29:21.924Z,1.43
2022-08-28T15:31:51.416Z,1.63
2022-08-28T15:34:24.251Z,1.47
2022-08-28T15:36:56.076Z,1.27
2022-08-28T15:39:42.712Z,1.50
2022-08-28T15:42:11.688Z,1.40
2022-08-28T15:44:40.790Z,1.50
2022-08-28T15:47:09.204Z,1.67
2022-08-28T15:49:44.810Z,1.73
2022-08-28T15:52:19.180Z,1.40
2022-08-28T15:54:47.698Z,1.50
2022-08-28T15:57:16.703Z,1.73
2022-08-28T15:59:48.672Z,1.50
2022-08-28T16:02:19.771Z,1.30
2022-08-28T16:04:50.018Z,1.20
2022-08-28T16:07:18.718Z,1.40
2022-08-28T16:09:47.300Z,1.50
2022-08-28T16:12:16.509Z,1.63
2022-08-28T16:14:45.063Z,1.37
2022-08-28T16:17:13.350Z,1.30
2022-08-28T16:19:43.162Z,1.20
2022-08-28T16:22:16.010Z,1.30
2022-08-28T16:24:45.000Z,1.40
2022-08-28T16:27:15.611Z,1.23
2022-08-28T16:29:44.777Z,1.40
2022-08-28T16:32:13.802Z,1.70
2022-08-28T16:34:44.719Z,1.83
2022-08-28T16:37:19.452Z,1.40
2022-08-28T16:39:49.846Z,1.60
2022-08-28T16:42:18.558Z,1.50
2022-08-28T16:44:46.765Z,1.63
2022-08-28T16:47:15.245Z,1.50
2022-08-28T16:49:43.953Z,1.40
2022-08-28T16:52:12.210Z,1.80
2022-08-28T16:54:47.507Z,1.40
2022-08-28T16:57:17.759Z,1.43
2022-08-28T16:59:46.125Z,1.33
2022-08-28T17:02:14.568Z,1.40
2022-08-28T17:04:44.463Z,1.67
2022-08-28T17:07:12.677Z,1.60
2022-08-28T17:09:42.276Z,1.60
2022-08-28T17:12:11.551Z,1.80
2022-08-28T17:14:41.174Z,1.70
2022-08-28T17:17:09.366Z,1.50
2022-08-28T17:19:38.393Z,1.50
2022-08-28T17:22:27.289Z,1.20
2022-08-28T17:24:59.149Z,1.40
2022-08-28T17:27:27.585Z,1.83
2022-08-28T17:29:56.750Z,1.30
2022-08-28T17:32:25.343Z,1.33
2022-08-28T17:34:53.648Z,1.40
2022-08-28T17:37:23.754Z,1.60
2022-08-28T17:39:53.799Z,1.50
2022-08-28T17:42:23.854Z,1.50
2022-08-28T17:44:54.485Z,1.30
2022-08-28T17:47:30.546Z,1.37
2022-08-28T17:49:59.863Z,1.63
2022-08-28T17:52:28.869Z,1.60
2022-08-28T17:54:57.188Z,1.50
2022-08-28T17:57:28.803Z,1.43
2022-08-28T18:00:00.234Z,2.40
2022-08-28T18:02:29.594Z,1.50
2022-08-28T18:04:59.004Z,1.50
2022-08-28T18:07:30.229Z,1.50
2022-08-28T18:09:58.644Z,1.30
2022-08-28T18:12:28.405Z,1.50
2022-08-28T18:14:57.076Z,1.40
2022-08-28T18:17:25.389Z,1.60
2022-08-28T18:19:53.844Z,1.80
2022-08-28T18:22:25.361Z,2.00
2022-08-28T18:24:56.080Z,1.73
2022-08-28T18:27:28.186Z,1.90
2022-08-28T18:29:57.776Z,2.00
2022-08-28T18:32:26.407Z,1.53
2022-08-28T18:34:54.710Z,1.70
2022-08-28T18:37:22.950Z,2.00
2022-08-28T18:39:51.642Z,1.73
2022-08-28T18:42:20.212Z,1.67
2022-08-28T18:44:48.484Z,1.77
2022-08-28T18:47:18.098Z,2.07
2022-08-28T18:49:46.776Z,1.70
2022-08-28T18:52:15.004Z,1.80
2022-08-28T18:54:43.207Z,1.70
2022-08-28T18:57:12.862Z,1.90
2022-08-28T18:59:41.081Z,1.40
2022-08-28T19:02:09.532Z,1.77
2022-08-28T19:04:41.607Z,1.77
2022-08-28T19:07:10.283Z,2.17
2022-08-28T19:09:38.822Z,2.03
2022-08-28T19:12:08.353Z,2.00
2022-08-28T19:14:38.007Z,2.00
2022-08-28T19:17:06.695Z,1.90
2022-08-28T19:19:34.972Z,1.60
2022-08-28T19:22:04.967Z,1.73
2022-08-28T19:24:34.799Z,2.10
2022-08-28T19:27:03.585Z,2.00
2022-08-28T19:29:31.877Z,1.90
2022-08-28T19:32:00.221Z,1.80
2022-08-28T19:34:29.927Z,1.80
2022-08-28T19:37:01.422Z,1.90
2022-08-28T19:39:32.721Z,1.70
2022-08-28T19:42:01.577Z,1.80
2022-08-28T19:44:29.848Z,1.80
2022-08-28T19:46:58.348Z,1.97
2022-08-28T19:49:26.696Z,2.00
2022-08-28T19:51:55.052Z,1.80
2022-08-28T19:54:23.812Z,1.77
2022-08-28T19:56:53.823Z,1.60
2022-08-28T19:59:27.122Z,1.90
2022-08-28T20:01:55.713Z,1.80
2022-08-28T20:04:25.332Z,1.73
2022-08-28T20:06:54.124Z,2.03
2022-08-28T20:09:22.509Z,1.97
2022-08-28T20:11:52.740Z,1.80
2022-08-28T20:14:22.274Z,2.00
2022-08-28T20:16:52.491Z,1.77
2022-08-28T20:19:21.462Z,2.00
2022-08-28T20:21:51.447Z,1.60
2022-08-28T20:24:23.731Z,1.70
2022-08-28T20:26:54.563Z,1.97
2022-08-28T20:29:24.325Z,1.97
2022-08-28T20:31:53.264Z,1.70
2022-08-28T20:34:21.894Z,1.90
2022-08-28T20:36:50.745Z,1.93
2022-08-28T20:39:20.475Z,1.80
2022-08-28T20:41:50.460Z,2.00
2022-08-28T20:44:21.776Z,1.90
2022-08-28T20:46:51.357Z,1.87
2022-08-28T20:49:22.217Z,1.90
2022-08-28T20:51:56.989Z,1.73
2022-08-28T20:54:28.603Z,1.93
2022-08-28T20:56:58.648Z,1.90
2022-08-28T20:59:34.516Z,2.10
2022-08-28T21:02:10.422Z,1.80
2022-08-28T21:04:40.315Z,2.17
2022-08-28T21:07:08.740Z,1.90
2022-08-28T21:10:04.287Z,2.13
2022-08-28T21:12:26.341Z,1.93
2022-08-28T21:14:56.269Z,2.20
2022-08-28T21:17:29.355Z,1.97
2022-08-28T21:20:02.811Z,2.37
2022-08-28T21:22:40.774Z,1.73
2022-08-28T21:25:12.168Z,1.80
2022-08-28T21:27:40.941Z,1.90
2022-08-28T21:30:13.461Z,2.00
2022-08-28T21:32:41.972Z,2.10
2022-08-28T21:35:12.367Z,2.10
2022-08-28T21:37:41.868Z,2.00
2022-08-28T21:40:13.084Z,2.17
2022-08-28T21:42:42.469Z,1.90
2022-08-28T21:45:13.598Z,1.90
2022-08-28T21:47:42.505Z,1.90
2022-08-28T21:50:12.012Z,1.90
2022-08-28T21:52:41.059Z,2.37
2022-08-28T21:55:11.565Z,1.90
2022-08-28T21:57:40.453Z,2.20
2022-08-28T22:00:14.261Z,2.00
2022-08-28T22:02:43.242Z,2.10
2022-08-28T22:05:11.757Z,2.03
2022-08-28T22:07:40.927Z,2.00
2022-08-28T22:10:10.787Z,2.00
2022-08-28T22:12:39.135Z,2.20
2022-08-28T22:15:09.005Z,2.77
2022-08-28T22:17:41.219Z,1.90
2022-08-28T22:20:10.716Z,2.30
2022-08-28T22:22:56.839Z,2.20
2022-08-28T22:25:27.721Z,2.23
2022-08-28T22:28:02.255Z,2.27
2022-08-28T22:30:30.746Z,2.00
2022-08-28T22:33:01.497Z,2.03
2022-08-28T22:35:31.042Z,2.10
2022-08-28T22:37:59.319Z,2.20
2022-08-28T22:40:28.679Z,2.30
2022-08-28T22:42:57.676Z,2.30
2022-08-28T22:45:26.096Z,2.23
2022-08-28T22:47:55.327Z,2.20
2022-08-28T22:50:25.034Z,2.40
2022-08-28T22:52:53.394Z,2.77
2022-08-28T22:55:22.718Z,2.47
2022-08-28T22:57:51.496Z,2.37
2022-08-28T23:00:23.971Z,2.13
2022-08-28T23:03:10.921Z,2.20
2022-08-28T23:05:40.821Z,2.20
2022-08-28T23:08:11.602Z,2.57
2022-08-28T23:10:58.034Z,2.30
2022-08-28T23:13:27.026Z,2.17
2022-08-28T23:15:55.496Z,2.30
2022-08-28T23:18:23.800Z,1.97
2022-08-28T23:20:54.314Z,2.37
2022-08-28T23:23:23.371Z,2.10
2022-08-28T23:25:51.755Z,2.40
2022-08-28T23:28:20.765Z,2.30
2022-08-28T23:30:49.952Z,2.20
2022-08-28T23:33:24.091Z,2.20
2022-08-28T23:35:54.240Z,2.10
2022-08-28T23:38:22.517Z,2.53
2022-08-28T23:40:50.862Z,2.10
2022-08-28T23:43:20.844Z,2.47
2022-08-28T23:45:49.794Z,2.40
2022-08-28T23:48:18.115Z,2.30
2022-08-28T23:50:47.079Z,2.30
2022-08-28T23:53:16.676Z,2.30
2022-08-28T23:55:45.734Z,2.50
2022-08-28T23:58:20.839Z,2.20
